createdAt,value
2019-02-04T00:00:24.311Z,101563.44
2019-02-04T00:02:52.630Z,101553.76
2019-02-04T00:05:20.901Z,101558.98
2019-02-04T00:07:49.183Z,101564.16
2019-02-04T00:10:17.450Z,101571.12
2019-02-04T00:12:45.748Z,101568.44
2019-02-04T00:15:14.011Z,101576.24
2019-02-04T00:17:42.279Z,101579.17
2019-02-04T00:20:11.509Z,101579.98
2019-02-04T00:22:39.832Z,101577.28
2019-02-04T00:25:08.286Z,101590.45
2019-02-04T00:27:36.621Z,101579.54
2019-02-04T00:30:08.177Z,101574.36
2019-02-04T00:32:36.449Z,101580.11
2019-02-04T00:35:05.718Z,101574.93
2019-02-04T00:37:33.961Z,101569.75
2019-02-04T00:40:02.273Z,101582.93
2019-02-04T00:42:30.581Z,101577.75
2019-02-04T00:44:58.850Z,101583.49
2019-02-04T00:47:27.133Z,101584.37
2019-02-04T00:49:55.434Z,101586.14
2019-02-04T00:52:24.149Z,101593.11
2019-02-04T00:54:52.439Z,101589.55
2019-02-04T00:57:20.776Z,101599.55
2019-02-04T00:59:49.088Z,101598.95
2019-02-04T01:02:17.936Z,101601.86
2019-02-04T01:04:46.188Z,101604.75
2019-02-04T01:07:14.497Z,101593.16
2019-02-04T01:09:42.779Z,101607.84
2019-02-04T01:12:11.161Z,101600.61
2019-02-04T01:14:39.592Z,101601.31
2019-02-04T01:17:08.130Z,101607.68
2019-02-04T01:19:36.427Z,101603.95
2019-02-04T01:22:04.710Z,101601.98
2019-02-04T01:24:32.980Z,101600.97
2019-02-04T01:27:01.285Z,101602.19
2019-02-04T01:29:29.556Z,101607.34
2019-02-04T01:31:57.819Z,101609.89
2019-02-04T01:34:26.186Z,101612.86
2019-02-04T01:36:54.461Z,101618.51
2019-02-04T01:39:22.705Z,101617.54
2019-02-04T01:41:50.982Z,101621.44
2019-02-04T01:44:19.358Z,101618.80
2019-02-04T01:46:47.619Z,101628.80
2019-02-04T01:49:15.913Z,101630.55
2019-02-04T01:51:44.173Z,101624.91
2019-02-04T01:54:12.460Z,101614.86
2019-02-04T01:56:40.734Z,101621.81
2019-02-04T01:59:09.026Z,101625.77
2019-02-04T02:01:37.328Z,101622.22
2019-02-04T02:04:05.758Z,101627.08
2019-02-04T02:06:34.040Z,101633.58
2019-02-04T02:09:04.102Z,101634.01
2019-02-04T02:11:32.579Z,101630.55
2019-02-04T02:14:00.862Z,101633.66
2019-02-04T02:16:29.120Z,101628.01
2019-02-04T02:18:57.478Z,101631.53
2019-02-04T02:21:25.787Z,101634.25
2019-02-04T02:23:54.063Z,101631.62
2019-02-04T02:26:22.340Z,101629.92
2019-02-04T02:28:50.640Z,101628.17
2019-02-04T02:31:18.957Z,101625.59
2019-02-04T02:33:47.604Z,101618.23
2019-02-04T02:36:15.883Z,101623.66
2019-02-04T02:38:44.143Z,101621.62
2019-02-04T02:41:12.393Z,101620.83
2019-02-04T02:43:40.857Z,101615.70
2019-02-04T02:46:09.134Z,101614.95
2019-02-04T02:48:37.507Z,101623.81
2019-02-04T02:51:05.768Z,101623.10
2019-02-04T02:53:34.057Z,101620.16
2019-02-04T02:56:02.349Z,101624.66
2019-02-04T02:58:30.614Z,101631.74
2019-02-04T03:00:58.997Z,101632.70
2019-02-04T03:03:27.250Z,101631.34
2019-02-04T03:05:55.913Z,101638.23
2019-02-04T03:08:24.834Z,101636.45
2019-02-04T03:10:53.112Z,101637.32
2019-02-04T03:13:21.366Z,101638.67
2019-02-04T03:15:49.730Z,101637.84
2019-02-04T03:18:18.033Z,101644.44
2019-02-04T03:20:46.496Z,101652.29
2019-02-04T03:23:14.762Z,101648.75
2019-02-04T03:25:43.048Z,101646.08
2019-02-04T03:28:11.314Z,101651.70
2019-02-04T03:30:39.600Z,101643.73
2019-02-04T03:33:07.874Z,101650.66
2019-02-04T03:35:36.176Z,101654.56
2019-02-04T03:38:04.422Z,101652.41
2019-02-04T03:40:32.946Z,101645.84
2019-02-04T03:43:01.253Z,101647.16
2019-02-04T03:45:29.559Z,101651.50
2019-02-04T03:48:06.336Z,101646.08
2019-02-04T03:50:27.818Z,101649.37
2019-02-04T03:52:56.099Z,101651.78
2019-02-04T03:55:24.341Z,101650.33
2019-02-04T03:57:52.606Z,101654.19
2019-02-04T04:00:32.256Z,101655.93
2019-02-04T04:03:00.625Z,101655.94
2019-02-04T04:05:29.055Z,101657.69
2019-02-04T04:07:57.358Z,101660.77
2019-02-04T04:10:25.629Z,101660.02
2019-02-04T04:12:53.888Z,101655.81
2019-02-04T04:15:22.750Z,101651.64
2019-02-04T04:17:51.007Z,101646.12
2019-02-04T04:20:20.406Z,101648.44
2019-02-04T04:22:48.678Z,101649.86
2019-02-04T04:25:19.701Z,101656.48
2019-02-04T04:27:48.348Z,101648.52
2019-02-04T04:30:28.431Z,101644.41
2019-02-04T04:32:56.990Z,101639.06
2019-02-04T04:35:25.287Z,101635.91
2019-02-04T04:37:53.617Z,101636.70
2019-02-04T04:40:21.881Z,101640.55
2019-02-04T04:42:50.176Z,101637.89
2019-02-04T04:45:20.935Z,101635.64
2019-02-04T04:47:49.751Z,101640.87
2019-02-04T04:50:18.013Z,101639.11
2019-02-04T04:52:46.385Z,101638.71
2019-02-04T04:55:17.311Z,101638.71
2019-02-04T04:57:45.580Z,101637.00
2019-02-04T05:00:16.390Z,101631.05
2019-02-04T05:02:44.827Z,101631.57
2019-02-04T05:05:14.160Z,101635.08
2019-02-04T05:07:42.500Z,101630.22
2019-02-04T05:10:13.780Z,101633.28
2019-02-04T05:12:42.032Z,101628.42
2019-02-04T05:15:13.346Z,101623.64
2019-02-04T05:17:41.608Z,101630.61
2019-02-04T05:20:12.596Z,101633.67
2019-02-04T05:22:40.861Z,101626.18
2019-02-04T05:25:09.354Z,101628.33
2019-02-04T05:27:37.825Z,101632.31
2019-02-04T05:30:14.683Z,101627.98
2019-02-04T05:32:42.984Z,101632.45
2019-02-04T05:35:11.445Z,101629.86
2019-02-04T05:37:39.710Z,101632.97
2019-02-04T05:40:10.736Z,101636.56
2019-02-04T05:42:39.025Z,101635.25
2019-02-04T05:45:09.990Z,101643.53
2019-02-04T05:47:38.285Z,101639.63
2019-02-04T05:50:09.718Z,101645.88
2019-02-04T05:52:38.000Z,101650.78
2019-02-04T05:55:07.095Z,101650.38
2019-02-04T05:57:35.520Z,101647.75
2019-02-04T06:00:06.789Z,101656.48
2019-02-04T06:02:35.059Z,101651.22
2019-02-04T06:05:03.783Z,101649.95
2019-02-04T06:07:32.064Z,101664.95
2019-02-04T06:10:00.365Z,101658.02
2019-02-04T06:12:28.604Z,101665.47
2019-02-04T06:14:56.882Z,101668.53
2019-02-04T06:17:25.138Z,101657.63
2019-02-04T06:19:53.438Z,101663.72
2019-02-04T06:22:21.749Z,101659.66
2019-02-04T06:24:50.331Z,101657.83
2019-02-04T06:27:18.596Z,101647.72
2019-02-04T06:29:47.282Z,101642.41
2019-02-04T06:32:15.536Z,101634.49
2019-02-04T06:34:43.814Z,101638.00
2019-02-04T06:37:12.118Z,101634.45
2019-02-04T06:39:40.639Z,101631.83
2019-02-04T06:42:08.898Z,101630.91
2019-02-04T06:44:37.467Z,101638.27
2019-02-04T06:47:05.776Z,101636.91
2019-02-04T06:49:34.021Z,101635.12
2019-02-04T06:52:02.531Z,101632.93
2019-02-04T06:54:30.774Z,101632.97
2019-02-04T06:56:59.314Z,101627.23
2019-02-04T06:59:27.596Z,101629.73
2019-02-04T07:01:57.719Z,101624.34
2019-02-04T07:04:25.891Z,101631.27
2019-02-04T07:06:54.341Z,101619.42
2019-02-04T07:09:22.616Z,101623.77
2019-02-04T07:11:50.923Z,101626.39
2019-02-04T07:14:19.198Z,101620.25
2019-02-04T07:16:47.854Z,101627.70
2019-02-04T07:19:23.678Z,101622.40
2019-02-04T07:21:46.149Z,101626.25
2019-02-04T07:24:14.467Z,101638.00
2019-02-04T07:26:42.758Z,101630.41
2019-02-04T07:29:11.014Z,101632.02
2019-02-04T07:31:39.294Z,101634.98
2019-02-04T07:34:07.561Z,101632.30
2019-02-04T07:36:35.856Z,101634.84
2019-02-04T07:39:06.228Z,101625.14
2019-02-04T07:41:34.509Z,101618.89
2019-02-04T07:44:02.845Z,101613.52
2019-02-04T07:46:31.132Z,101609.08
2019-02-04T07:48:59.667Z,101611.60
2019-02-04T07:51:27.981Z,101608.42
2019-02-04T07:53:56.229Z,101608.31
2019-02-04T07:56:25.431Z,101605.56
2019-02-04T07:58:53.725Z,101600.55
2019-02-04T08:01:22.178Z,101607.42
2019-02-04T08:03:50.819Z,101606.37
2019-02-04T08:06:19.344Z,101606.64
2019-02-04T08:08:47.602Z,101609.52
2019-02-04T08:11:15.864Z,101614.11
2019-02-04T08:13:44.147Z,101617.83
2019-02-04T08:16:12.397Z,101617.70
2019-02-04T08:18:40.751Z,101625.41
2019-02-04T08:21:09.104Z,101624.36
2019-02-04T08:23:37.427Z,101629.00
2019-02-04T08:26:05.690Z,101630.61
2019-02-04T08:28:33.973Z,101622.95
2019-02-04T08:31:02.240Z,101621.80
2019-02-04T08:33:30.582Z,101628.56
2019-02-04T08:35:59.207Z,101626.82
2019-02-04T08:38:27.489Z,101631.53
2019-02-04T08:40:55.753Z,101628.20
2019-02-04T08:43:24.096Z,101617.28
2019-02-04T08:45:52.399Z,101610.55
2019-02-04T08:48:20.747Z,101614.92
2019-02-04T08:50:49.003Z,101610.23
2019-02-04T08:53:17.742Z,101610.59
2019-02-04T08:55:46.018Z,101608.09
2019-02-04T08:58:14.266Z,101600.20
2019-02-04T09:00:42.704Z,101601.69
2019-02-04T09:03:11.025Z,101598.20
2019-02-04T09:05:39.323Z,101594.58
2019-02-04T09:08:07.702Z,101591.95
2019-02-04T09:10:36.232Z,101586.97
2019-02-04T09:13:04.508Z,101585.80
2019-02-04T09:15:32.758Z,101579.63
2019-02-04T09:18:01.276Z,101585.46
2019-02-04T09:20:29.524Z,101589.02
2019-02-04T09:22:57.776Z,101591.92
2019-02-04T09:25:27.000Z,101595.20
2019-02-04T09:27:56.728Z,101588.16
2019-02-04T09:30:27.551Z,101585.55
2019-02-04T09:32:57.275Z,101587.81
2019-02-04T09:35:25.549Z,101586.63
2019-02-04T09:37:54.132Z,101592.52
2019-02-04T09:40:30.637Z,101584.60
2019-02-04T09:42:58.897Z,101587.25
2019-02-04T09:45:27.869Z,101581.39
2019-02-04T09:47:56.486Z,101575.02
2019-02-04T09:50:32.545Z,101571.34
2019-02-04T09:53:00.867Z,101562.80
2019-02-04T09:55:32.367Z,101561.44
2019-02-04T09:58:00.646Z,101566.77
2019-02-04T10:00:30.976Z,101560.14
2019-02-04T10:02:59.216Z,101557.28
2019-02-04T10:05:27.552Z,101550.47
2019-02-04T10:07:55.796Z,101549.48
2019-02-04T10:10:26.204Z,101550.81
2019-02-04T10:12:54.473Z,101556.08
2019-02-04T10:15:28.947Z,101559.83
2019-02-04T10:17:57.268Z,101556.66
2019-02-04T10:20:33.307Z,101558.63
2019-02-04T10:22:55.937Z,101564.66
2019-02-04T10:25:27.257Z,101556.48
2019-02-04T10:27:55.499Z,101554.96
2019-02-04T10:30:24.588Z,101554.35
2019-02-04T10:32:52.897Z,101553.29
2019-02-04T10:35:21.480Z,101556.92
2019-02-04T10:37:51.132Z,101554.53
2019-02-04T10:40:25.607Z,101556.30
2019-02-04T10:42:53.298Z,101555.75
2019-02-04T10:45:21.796Z,101544.88
2019-02-04T10:47:50.714Z,101547.52
2019-02-04T10:50:30.589Z,101534.33
2019-02-04T10:52:58.970Z,101535.74
2019-02-04T10:55:27.331Z,101538.89
2019-02-04T10:57:55.847Z,101535.61
2019-02-04T11:00:34.727Z,101521.74
2019-02-04T11:03:03.400Z,101528.97
2019-02-04T11:05:34.379Z,101524.39
2019-02-04T11:08:02.634Z,101519.47
2019-02-04T11:10:35.566Z,101520.66
2019-02-04T11:13:06.757Z,101521.44
2019-02-04T11:15:35.006Z,101516.92
2019-02-04T11:18:03.326Z,101513.31
2019-02-04T11:20:32.953Z,101509.05
2019-02-04T11:23:01.308Z,101509.70
2019-02-04T11:25:29.668Z,101510.61
2019-02-04T11:27:57.986Z,101503.41
2019-02-04T11:30:31.852Z,101511.39
2019-02-04T11:33:00.160Z,101508.59
2019-02-04T11:35:28.453Z,101498.37
2019-02-04T11:37:56.718Z,101503.59
2019-02-04T11:40:34.042Z,101509.97
2019-02-04T11:43:02.299Z,101507.86
2019-02-04T11:45:31.035Z,101502.41
2019-02-04T11:47:59.472Z,101500.11
2019-02-04T11:50:27.812Z,101502.91
2019-02-04T11:52:56.126Z,101501.16
2019-02-04T11:55:24.477Z,101487.17
2019-02-04T11:57:52.870Z,101502.16
2019-02-04T12:00:27.091Z,101506.42
2019-02-04T12:02:55.975Z,101498.94
2019-02-04T12:05:24.400Z,101492.25
2019-02-04T12:07:53.219Z,101487.69
2019-02-04T12:10:27.595Z,101485.02
2019-02-04T12:12:55.942Z,101486.48
2019-02-04T12:15:24.187Z,101483.33
2019-02-04T12:17:52.467Z,101478.85
2019-02-04T12:20:20.718Z,101466.56
2019-02-04T12:22:49.415Z,101463.45
2019-02-04T12:25:25.970Z,101468.44
2019-02-04T12:27:54.832Z,101467.57
2019-02-04T12:30:26.367Z,101475.68
2019-02-04T12:32:55.022Z,101461.92
2019-02-04T12:35:23.269Z,101470.72
2019-02-04T12:37:51.578Z,101455.01
2019-02-04T12:40:19.824Z,101460.19
2019-02-04T12:42:48.455Z,101457.80
2019-02-04T12:45:22.547Z,101460.16
2019-02-04T12:47:50.363Z,101461.03
2019-02-04T12:50:18.628Z,101449.23
2019-02-04T12:52:46.902Z,101459.38
2019-02-04T12:55:21.011Z,101447.82
2019-02-04T12:57:49.542Z,101446.49
2019-02-04T13:00:22.098Z,101449.66
2019-02-04T13:02:50.440Z,101441.69
2019-02-04T13:05:30.799Z,101442.18
2019-02-04T13:07:59.359Z,101445.02
2019-02-04T13:10:27.641Z,101434.85
2019-02-04T13:12:55.881Z,101434.53
2019-02-04T13:15:24.843Z,101430.03
2019-02-04T13:17:53.583Z,101430.16
2019-02-04T13:20:23.114Z,101424.61
2019-02-04T13:22:51.560Z,101427.40
2019-02-04T13:25:22.983Z,101426.80
2019-02-04T13:27:51.274Z,101427.72
2019-02-04T13:30:22.181Z,101423.41
2019-02-04T13:32:50.434Z,101432.06
2019-02-04T13:35:18.712Z,101420.23
2019-02-04T13:37:46.997Z,101422.11
2019-02-04T13:40:18.012Z,101420.05
2019-02-04T13:42:46.310Z,101413.94
2019-02-04T13:45:16.981Z,101410.55
2019-02-04T13:47:45.263Z,101415.08
2019-02-04T13:50:15.541Z,101413.02
2019-02-04T13:52:44.350Z,101409.89
2019-02-04T13:55:15.856Z,101408.23
2019-02-04T13:57:44.171Z,101415.39
2019-02-04T14:00:14.132Z,101413.22
2019-02-04T14:02:42.390Z,101407.91
2019-02-04T14:05:11.513Z,101404.77
2019-02-04T14:07:39.939Z,101403.52
2019-02-04T14:10:23.565Z,101407.42
2019-02-04T14:12:52.018Z,101404.39
2019-02-04T14:15:20.296Z,101400.13
2019-02-04T14:17:48.540Z,101395.81
2019-02-04T14:20:20.459Z,101393.75
2019-02-04T14:22:48.878Z,101399.22
2019-02-04T14:25:17.359Z,101398.89
2019-02-04T14:27:45.642Z,101388.78
2019-02-04T14:30:25.645Z,101389.97
2019-02-04T14:32:53.888Z,101388.73
2019-02-04T14:35:22.168Z,101390.52
2019-02-04T14:37:50.414Z,101382.14
2019-02-04T14:40:19.138Z,101388.40
2019-02-04T14:42:50.812Z,101376.45
2019-02-04T14:45:28.207Z,101382.22
2019-02-04T14:48:26.380Z,101378.28
2019-02-04T14:50:57.913Z,101375.76
2019-02-04T14:53:32.600Z,101371.53
2019-02-04T14:56:06.920Z,101369.42
2019-02-04T14:58:44.778Z,101375.56
2019-02-04T15:01:16.343Z,101369.01
2019-02-04T15:03:53.930Z,101371.25
2019-02-04T15:06:51.465Z,101373.12
2019-02-04T15:09:35.277Z,101361.63
2019-02-04T15:12:23.496Z,101366.48
2019-02-04T15:15:04.009Z,101374.03
2019-02-04T15:17:33.338Z,101356.73
2019-02-04T15:20:13.825Z,101360.84
2019-02-04T15:22:54.185Z,101363.50
2019-02-04T15:25:28.414Z,101359.97
2019-02-04T15:28:12.165Z,101355.61
2019-02-04T15:30:49.608Z,101361.71
2019-02-04T15:33:21.598Z,101353.80
2019-02-04T15:36:07.880Z,101355.99
2019-02-04T15:38:39.748Z,101360.92
2019-02-04T15:41:17.280Z,101348.56
2019-02-04T15:44:11.545Z,101345.50
2019-02-04T15:46:48.609Z,101346.78
2019-02-04T15:49:29.768Z,101340.61
2019-02-04T15:51:58.489Z,101339.61
2019-02-04T15:54:26.856Z,101344.45
2019-02-04T15:56:55.383Z,101343.17
2019-02-04T15:59:23.633Z,101340.52
2019-02-04T16:01:52.290Z,101332.64
2019-02-04T16:04:34.237Z,101333.19
2019-02-04T16:07:03.439Z,101327.46
2019-02-04T16:09:31.687Z,101328.55
2019-02-04T16:11:59.926Z,101334.69
2019-02-04T16:14:28.603Z,101324.16
2019-02-04T16:16:56.847Z,101327.72
2019-02-04T16:19:25.126Z,101331.70
2019-02-04T16:21:53.467Z,101328.72
2019-02-04T16:24:22.666Z,101323.16
2019-02-04T16:26:51.104Z,101328.47
2019-02-04T16:29:19.361Z,101312.59
2019-02-04T16:31:47.942Z,101316.20
2019-02-04T16:34:16.185Z,101321.97
2019-02-04T16:36:44.459Z,101325.08
2019-02-04T16:39:12.722Z,101319.36
2019-02-04T16:41:40.971Z,101319.44
2019-02-04T16:44:09.323Z,101322.63
2019-02-04T16:46:37.570Z,101316.50
2019-02-04T16:49:05.814Z,101318.24
2019-02-04T16:51:34.095Z,101312.73
2019-02-04T16:54:02.570Z,101324.55
2019-02-04T16:56:30.826Z,101323.22
2019-02-04T16:58:59.252Z,101327.07
2019-02-04T17:01:27.527Z,101325.75
2019-02-04T17:03:56.142Z,101336.81
2019-02-04T17:06:24.389Z,101339.14
2019-02-04T17:08:52.713Z,101343.12
2019-02-04T17:11:20.961Z,101341.00
2019-02-04T17:13:49.236Z,101341.00
2019-02-04T17:16:17.549Z,101342.37
2019-02-04T17:18:45.841Z,101348.09
2019-02-04T17:21:14.087Z,101347.34
2019-02-04T17:23:42.421Z,101331.02
2019-02-04T17:26:10.700Z,101338.98
2019-02-04T17:28:39.084Z,101336.81
2019-02-04T17:31:07.329Z,101330.35
2019-02-04T17:33:35.626Z,101336.86
2019-02-04T17:36:04.337Z,101342.58
2019-02-04T17:38:32.611Z,101329.69
2019-02-04T17:41:00.983Z,101330.10
2019-02-04T17:43:29.218Z,101332.75
2019-02-04T17:45:57.576Z,101331.97
2019-02-04T17:48:26.823Z,101333.30
2019-02-04T17:50:55.331Z,101332.34
2019-02-04T17:53:33.944Z,101325.33
2019-02-04T17:55:53.880Z,101335.53
2019-02-04T17:58:22.154Z,101331.63
2019-02-04T18:00:51.566Z,101336.98
2019-02-04T18:03:19.810Z,101338.31
2019-02-04T18:05:48.072Z,101336.61
2019-02-04T18:08:16.511Z,101330.48
2019-02-04T18:10:44.743Z,101328.36
2019-02-04T18:13:13.027Z,101333.80
2019-02-04T18:15:41.277Z,101335.53
2019-02-04T18:18:09.536Z,101309.38
2019-02-04T18:20:37.821Z,101311.13
2019-02-04T18:23:06.474Z,101287.66
2019-02-04T18:25:34.706Z,101300.05
2019-02-04T18:28:03.261Z,101312.73
2019-02-04T18:30:31.981Z,101304.28
2019-02-04T18:33:00.304Z,101314.77
2019-02-04T18:35:29.020Z,101321.07
2019-02-04T18:37:57.309Z,101312.33
2019-02-04T18:40:25.701Z,101308.34
2019-02-04T18:42:54.324Z,101314.52
2019-02-04T18:45:31.119Z,101305.23
2019-02-04T18:47:59.443Z,101307.34
2019-02-04T18:50:28.097Z,101304.16
2019-02-04T18:52:56.342Z,101305.56
2019-02-04T18:55:29.865Z,101295.74
2019-02-04T18:57:58.138Z,101305.90
2019-02-04T19:00:28.902Z,101304.48
2019-02-04T19:02:57.490Z,101312.94
2019-02-04T19:05:26.824Z,101304.91
2019-02-04T19:07:55.315Z,101297.86
2019-02-04T19:10:24.056Z,101302.38
2019-02-04T19:12:52.298Z,101304.66
2019-02-04T19:15:28.481Z,101319.62
2019-02-04T19:18:06.319Z,101316.42
2019-02-04T19:20:34.604Z,101318.95
2019-02-04T19:23:02.848Z,101322.80
2019-02-04T19:25:31.295Z,101319.77
2019-02-04T19:27:59.544Z,101318.95
2019-02-04T19:30:33.919Z,101311.95
2019-02-04T19:33:01.571Z,101313.19
2019-02-04T19:35:29.954Z,101319.70
2019-02-04T19:37:58.213Z,101315.10
2019-02-04T19:40:26.973Z,101324.01
2019-02-04T19:42:55.246Z,101324.01
2019-02-04T19:45:26.034Z,101324.39
2019-02-04T19:47:54.618Z,101332.75
2019-02-04T19:50:34.061Z,101324.92
2019-02-04T19:53:02.342Z,101324.18
2019-02-04T19:55:30.578Z,101317.70
2019-02-04T19:57:58.863Z,101320.41
2019-02-04T20:00:27.869Z,101315.10
2019-02-04T20:02:56.123Z,101321.81
2019-02-04T20:05:28.876Z,101315.23
2019-02-04T20:07:57.107Z,101316.30
2019-02-04T20:10:32.376Z,101305.23
2019-02-04T20:13:00.686Z,101314.69
2019-02-04T20:15:30.790Z,101320.19
2019-02-04T20:17:59.023Z,101311.83
2019-02-04T20:20:27.506Z,101334.56
2019-02-04T20:22:56.248Z,101340.40
2019-02-04T20:25:29.681Z,101340.86
2019-02-04T20:27:58.000Z,101340.90
2019-02-04T20:30:43.517Z,101342.30
2019-02-04T20:33:01.994Z,101359.08
2019-02-04T20:35:30.273Z,101345.33
2019-02-04T20:37:58.608Z,101357.75
2019-02-04T20:40:27.701Z,101341.77
2019-02-04T20:42:55.959Z,101363.05
2019-02-04T20:45:24.603Z,101353.70
2019-02-04T20:47:53.019Z,101359.91
2019-02-04T20:50:24.726Z,101368.81
2019-02-04T20:52:53.187Z,101366.63
2019-02-04T20:55:21.540Z,101363.55
2019-02-04T20:57:49.832Z,101371.02
2019-02-04T21:00:20.627Z,101369.16
2019-02-04T21:02:48.877Z,101367.95
2019-02-04T21:05:17.145Z,101358.74
2019-02-04T21:07:45.422Z,101331.36
2019-02-04T21:10:17.182Z,101349.39
2019-02-04T21:12:45.432Z,101341.89
2019-02-04T21:15:16.226Z,101358.33
2019-02-04T21:17:44.721Z,101363.10
2019-02-04T21:20:18.102Z,101375.11
2019-02-04T21:22:45.722Z,101376.36
2019-02-04T21:25:14.467Z,101377.53
2019-02-04T21:27:42.901Z,101371.78
2019-02-04T21:30:20.373Z,101376.09
2019-02-04T21:32:48.668Z,101373.78
2019-02-04T21:35:16.914Z,101381.78
2019-02-04T21:37:45.163Z,101373.03
2019-02-04T21:40:17.868Z,101381.97
2019-02-04T21:42:46.530Z,101378.11
2019-02-04T21:45:20.207Z,101379.55
2019-02-04T21:47:47.847Z,101382.66
2019-02-04T21:50:19.367Z,101381.64
2019-02-04T21:52:47.645Z,101377.62
2019-02-04T21:55:16.134Z,101385.05
2019-02-04T21:57:44.812Z,101382.33
2019-02-04T22:00:16.392Z,101393.75
2019-02-04T22:02:44.715Z,101385.31
2019-02-04T22:05:15.785Z,101387.13
2019-02-04T22:07:44.038Z,101379.67
2019-02-04T22:10:15.236Z,101384.10
2019-02-04T22:12:43.583Z,101388.49
2019-02-04T22:15:11.860Z,101370.39
2019-02-04T22:17:40.141Z,101389.89
2019-02-04T22:20:14.308Z,101379.78
2019-02-04T22:22:42.586Z,101386.94
2019-02-04T22:25:19.488Z,101395.01
2019-02-04T22:27:42.694Z,101389.70
2019-02-04T22:30:14.588Z,101381.38
2019-02-04T22:32:43.102Z,101381.42
2019-02-04T22:35:11.647Z,101386.30
2019-02-04T22:37:39.920Z,101399.09
2019-02-04T22:40:17.021Z,101386.80
2019-02-04T22:42:45.282Z,101389.90
2019-02-04T22:45:16.031Z,101367.83
2019-02-04T22:47:44.291Z,101379.75
2019-02-04T22:50:18.096Z,101377.18
2019-02-04T22:52:46.388Z,101373.13
2019-02-04T22:55:14.903Z,101383.31
2019-02-04T22:57:43.145Z,101381.98
2019-02-04T23:00:41.703Z,101382.93
2019-02-04T23:03:10.628Z,101389.59
2019-02-04T23:05:38.850Z,101384.48
2019-02-04T23:08:07.252Z,101394.41
2019-02-04T23:10:35.451Z,101402.05
2019-02-04T23:13:03.688Z,101409.30
2019-02-04T23:15:31.958Z,101404.72
2019-02-04T23:18:00.249Z,101396.47
2019-02-04T23:20:28.781Z,101392.67
2019-02-04T23:22:57.030Z,101398.57
2019-02-04T23:25:25.478Z,101402.69
2019-02-04T23:27:53.764Z,101412.44
2019-02-04T23:30:22.304Z,101412.06
2019-02-04T23:32:50.519Z,101412.97
2019-02-04T23:35:19.083Z,101416.59
2019-02-04T23:37:47.365Z,101418.93
2019-02-04T23:40:16.947Z,101403.64
2019-02-04T23:42:45.348Z,101405.45
2019-02-04T23:45:13.668Z,101407.58
2019-02-04T23:47:41.910Z,101403.26
2019-02-04T23:50:15.089Z,101417.98
2019-02-04T23:52:43.334Z,101410.60
2019-02-04T23:55:12.565Z,101399.67
2019-02-04T23:57:40.993Z,101408.27
